createdAt,value
2018-12-22T00:01:19.036Z,0.60
2018-12-22T00:03:45.336Z,0.80
2018-12-22T00:06:11.607Z,0.80
2018-12-22T00:08:37.874Z,0.90
2018-12-22T00:11:04.152Z,0.80
2018-12-22T00:13:30.430Z,0.70
2018-12-22T00:15:56.748Z,0.77
2018-12-22T00:18:23.072Z,0.67
2018-12-22T00:20:49.431Z,0.77
2018-12-22T00:23:15.779Z,0.80
2018-12-22T00:25:42.045Z,0.87
2018-12-22T00:28:08.305Z,0.70
2018-12-22T00:30:34.571Z,0.70
2018-12-22T00:33:00.986Z,0.60
2018-12-22T00:35:28.143Z,0.83
2018-12-22T00:37:54.445Z,0.87
2018-12-22T00:40:20.700Z,0.70
2018-12-22T00:42:47.317Z,0.90
2018-12-22T00:45:13.637Z,0.80
2018-12-22T00:47:39.936Z,0.80
2018-12-22T00:50:06.251Z,0.73
2018-12-22T00:52:32.587Z,1.00
2018-12-22T00:54:58.867Z,0.87
2018-12-22T00:57:25.209Z,0.80
2018-12-22T00:59:51.467Z,0.80
2018-12-22T01:02:17.757Z,0.93
2018-12-22T01:04:44.074Z,0.95
2018-12-22T01:07:10.436Z,0.83
2018-12-22T01:09:36.669Z,0.80
2018-12-22T01:12:03.217Z,0.97
2018-12-22T01:14:29.673Z,0.90
2018-12-22T01:16:55.978Z,0.70
2018-12-22T01:19:22.364Z,0.80
2018-12-22T01:21:48.657Z,0.80
2018-12-22T01:24:14.964Z,0.80
2018-12-22T01:26:41.247Z,0.80
2018-12-22T01:29:07.622Z,0.80
2018-12-22T01:31:33.956Z,0.70
2018-12-22T01:34:00.222Z,0.70
2018-12-22T01:36:26.538Z,0.83
2018-12-22T01:38:52.806Z,0.80
2018-12-22T01:41:19.131Z,0.70
2018-12-22T01:43:45.413Z,0.80
2018-12-22T01:46:11.750Z,0.80
2018-12-22T01:48:38.117Z,0.73
2018-12-22T01:51:04.384Z,0.70
2018-12-22T01:53:30.661Z,0.70
2018-12-22T01:55:57.046Z,0.70
2018-12-22T01:58:23.995Z,0.70
2018-12-22T02:00:50.256Z,0.70
2018-12-22T02:03:16.576Z,0.60
2018-12-22T02:05:42.814Z,0.80
2018-12-22T02:08:09.104Z,0.80
2018-12-22T02:10:35.349Z,0.80
2018-12-22T02:13:01.645Z,0.83
2018-12-22T02:15:27.936Z,0.80
2018-12-22T02:17:54.197Z,0.80
2018-12-22T02:20:20.484Z,0.80
2018-12-22T02:22:46.729Z,1.07
2018-12-22T02:25:13.131Z,0.87
2018-12-22T02:27:39.393Z,0.80
2018-12-22T02:30:05.677Z,0.80
2018-12-22T02:32:32.061Z,0.80
2018-12-22T02:34:58.346Z,0.70
2018-12-22T02:37:24.618Z,0.70
2018-12-22T02:39:50.861Z,0.80
2018-12-22T02:42:17.152Z,0.70
2018-12-22T02:44:43.499Z,0.70
2018-12-22T02:47:09.806Z,0.70
2018-12-22T02:49:36.050Z,0.77
2018-12-22T02:52:02.411Z,0.70
2018-12-22T02:54:28.696Z,0.70
2018-12-22T02:56:55.018Z,0.73
2018-12-22T02:59:21.302Z,0.70
2018-12-22T03:01:47.552Z,0.70
2018-12-22T03:04:13.798Z,0.80
2018-12-22T03:06:40.171Z,0.63
2018-12-22T03:09:06.487Z,0.70
2018-12-22T03:11:32.796Z,0.70
2018-12-22T03:13:59.073Z,0.60
2018-12-22T03:16:25.385Z,0.70
2018-12-22T03:18:51.776Z,0.70
2018-12-22T03:21:18.102Z,0.63
2018-12-22T03:23:44.444Z,0.63
2018-12-22T03:26:10.713Z,0.63
2018-12-22T03:28:36.967Z,0.60
2018-12-22T03:31:03.371Z,0.80
2018-12-22T03:33:29.653Z,0.80
2018-12-22T03:35:55.989Z,0.63
2018-12-22T03:38:22.263Z,0.80
2018-12-22T03:40:48.569Z,0.70
2018-12-22T03:43:14.906Z,0.70
2018-12-22T03:45:41.182Z,0.70
2018-12-22T03:48:07.494Z,0.63
2018-12-22T03:50:33.749Z,0.80
2018-12-22T03:53:00.089Z,0.70
2018-12-22T03:55:26.323Z,0.80
2018-12-22T03:57:52.592Z,0.90
2018-12-22T04:00:18.898Z,0.70
2018-12-22T04:02:45.217Z,0.83
2018-12-22T04:05:11.529Z,0.70
2018-12-22T04:07:37.855Z,0.80
2018-12-22T04:10:05.444Z,1.00
2018-12-22T04:12:31.777Z,0.70
2018-12-22T04:14:58.141Z,0.90
2018-12-22T04:17:24.450Z,0.80
2018-12-22T04:19:50.763Z,0.80
2018-12-22T04:22:17.194Z,0.90
2018-12-22T04:24:43.445Z,0.80
2018-12-22T04:27:09.706Z,0.90
2018-12-22T04:29:35.968Z,0.80
2018-12-22T04:32:02.258Z,0.80
2018-12-22T04:34:28.518Z,0.77
2018-12-22T04:36:55.076Z,0.70
2018-12-22T04:39:21.315Z,0.80
2018-12-22T04:41:47.647Z,0.90
2018-12-22T04:44:13.924Z,0.83
2018-12-22T04:46:40.212Z,0.80
2018-12-22T04:49:06.464Z,1.00
2018-12-22T04:51:32.847Z,0.70
2018-12-22T04:53:59.113Z,0.93
2018-12-22T04:56:25.404Z,0.80
2018-12-22T04:58:51.714Z,0.90
2018-12-22T05:01:18.110Z,0.90
2018-12-22T05:03:44.454Z,0.83
2018-12-22T05:06:10.751Z,0.83
2018-12-22T05:08:37.218Z,1.27
2018-12-22T05:11:03.547Z,0.80
2018-12-22T05:13:29.812Z,0.90
2018-12-22T05:15:56.043Z,0.90
2018-12-22T05:18:22.331Z,0.90
2018-12-22T05:20:48.647Z,1.00
2018-12-22T05:23:14.907Z,0.93
2018-12-22T05:25:41.170Z,1.00
2018-12-22T05:28:07.767Z,0.80
2018-12-22T05:30:34.066Z,0.90
2018-12-22T05:33:00.422Z,0.87
2018-12-22T05:35:26.672Z,0.80
2018-12-22T05:37:52.938Z,0.80
2018-12-22T05:40:19.204Z,0.97
2018-12-22T05:42:46.557Z,1.10
2018-12-22T05:45:12.861Z,1.10
2018-12-22T05:47:39.104Z,1.10
2018-12-22T05:50:06.409Z,1.00
2018-12-22T05:52:32.835Z,1.00
2018-12-22T05:54:59.086Z,1.13
2018-12-22T05:57:25.374Z,1.00
2018-12-22T06:00:00.186Z,1.10
2018-12-22T06:02:19.965Z,1.00
2018-12-22T06:04:46.230Z,1.23
2018-12-22T06:07:12.569Z,0.90
2018-12-22T06:09:38.896Z,1.37
2018-12-22T06:12:05.180Z,1.20
2018-12-22T06:14:31.615Z,1.00
2018-12-22T06:16:57.952Z,1.25
2018-12-22T06:19:24.211Z,1.10
2018-12-22T06:21:50.483Z,1.00
2018-12-22T06:24:16.813Z,1.10
2018-12-22T06:26:43.168Z,1.20
2018-12-22T06:29:09.482Z,1.10
2018-12-22T06:31:35.828Z,1.30
2018-12-22T06:34:02.145Z,1.10
2018-12-22T06:36:28.487Z,1.00
2018-12-22T06:38:54.756Z,0.93
2018-12-22T06:41:20.983Z,1.20
2018-12-22T06:43:47.242Z,1.20
2018-12-22T06:46:13.475Z,1.50
2018-12-22T06:48:39.739Z,1.20
2018-12-22T06:51:06.063Z,1.60
2018-12-22T06:53:32.353Z,1.27
2018-12-22T06:55:58.754Z,1.20
2018-12-22T06:58:25.039Z,1.20
2018-12-22T07:00:51.353Z,1.10
2018-12-22T07:03:17.600Z,1.30
2018-12-22T07:05:43.886Z,1.27
2018-12-22T07:08:10.177Z,1.50
2018-12-22T07:10:36.556Z,1.13
2018-12-22T07:13:03.080Z,1.30
2018-12-22T07:15:29.451Z,1.40
2018-12-22T07:17:55.866Z,1.23
2018-12-22T07:20:22.152Z,1.30
2018-12-22T07:22:48.468Z,1.43
2018-12-22T07:25:14.775Z,1.40
2018-12-22T07:27:41.088Z,1.17
2018-12-22T07:30:09.119Z,1.10
2018-12-22T07:32:35.359Z,1.30
2018-12-22T07:35:01.677Z,1.33
2018-12-22T07:37:27.978Z,1.23
2018-12-22T07:39:54.320Z,1.00
2018-12-22T07:42:20.766Z,1.20
2018-12-22T07:44:47.024Z,1.30
2018-12-22T07:47:13.295Z,1.60
2018-12-22T07:49:40.386Z,1.10
2018-12-22T07:52:06.723Z,1.20
2018-12-22T07:54:33.044Z,1.30
2018-12-22T07:57:00.016Z,1.17
2018-12-22T07:59:26.285Z,1.40
2018-12-22T08:01:52.723Z,1.20
2018-12-22T08:04:19.882Z,1.23
2018-12-22T08:06:46.186Z,1.13
2018-12-22T08:09:12.599Z,1.10
2018-12-22T08:11:39.324Z,1.30
2018-12-22T08:14:05.639Z,1.50
2018-12-22T08:16:32.035Z,1.63
2018-12-22T08:18:58.297Z,1.30
2018-12-22T08:21:24.632Z,1.60
2018-12-22T08:23:50.943Z,2.00
2018-12-22T08:26:17.225Z,1.53
2018-12-22T08:28:43.564Z,1.70
2018-12-22T08:31:10.501Z,1.97
2018-12-22T08:33:36.834Z,2.70
2018-12-22T08:36:03.125Z,1.87
2018-12-22T08:38:30.095Z,8.20
2018-12-22T08:40:56.476Z,4.90
2018-12-22T08:43:22.723Z,2.90
2018-12-22T08:45:49.143Z,2.10
2018-12-22T08:48:15.470Z,2.43
2018-12-22T08:50:41.742Z,2.00
2018-12-22T08:53:08.038Z,2.00
2018-12-22T08:55:34.392Z,1.93
2018-12-22T08:58:01.803Z,2.50
2018-12-22T09:00:28.085Z,6.60
2018-12-22T09:02:54.377Z,11.40
2018-12-22T09:05:21.126Z,6.63
2018-12-22T09:07:47.457Z,5.53
2018-12-22T09:10:13.723Z,5.03
2018-12-22T09:12:40.041Z,5.33
2018-12-22T09:15:07.367Z,7.50
2018-12-22T09:17:33.661Z,5.20
2018-12-22T09:20:00.278Z,3.33
2018-12-22T09:22:26.712Z,2.60
2018-12-22T09:24:53.019Z,2.37
2018-12-22T09:27:19.459Z,2.90
2018-12-22T09:29:45.724Z,2.20
2018-12-22T09:32:12.120Z,2.40
2018-12-22T09:34:38.433Z,2.10
2018-12-22T09:37:06.835Z,2.27
2018-12-22T09:39:33.114Z,2.00
2018-12-22T09:41:59.414Z,2.47
2018-12-22T09:44:25.714Z,1.90
2018-12-22T09:46:52.139Z,2.30
2018-12-22T09:49:18.424Z,2.13
2018-12-22T09:51:44.795Z,2.37
2018-12-22T09:54:11.491Z,1.80
2018-12-22T09:56:37.739Z,1.97
2018-12-22T09:59:06.359Z,2.13
2018-12-22T10:01:32.518Z,1.50
2018-12-22T10:03:58.779Z,1.40
2018-12-22T10:06:25.058Z,1.37
2018-12-22T10:08:51.735Z,1.67
2018-12-22T10:11:18.444Z,1.60
2018-12-22T10:13:44.751Z,1.50
2018-12-22T10:16:11.061Z,1.47
2018-12-22T10:18:37.416Z,1.50
2018-12-22T10:21:03.674Z,1.60
2018-12-22T10:23:30.131Z,1.60
2018-12-22T10:25:56.520Z,1.40
2018-12-22T10:28:22.911Z,1.70
2018-12-22T10:30:49.236Z,1.33
2018-12-22T10:33:15.512Z,2.00
2018-12-22T10:35:42.512Z,1.83
2018-12-22T10:38:08.902Z,1.50
2018-12-22T10:40:35.204Z,1.90
2018-12-22T10:43:01.649Z,2.13
2018-12-22T10:45:27.922Z,1.70
2018-12-22T10:47:54.198Z,2.00
2018-12-22T10:50:20.617Z,2.00
2018-12-22T10:52:48.807Z,1.80
2018-12-22T10:55:15.245Z,2.40
2018-12-22T10:57:41.570Z,2.00
2018-12-22T11:00:10.354Z,2.07
2018-12-22T11:02:36.656Z,2.27
2018-12-22T11:05:04.909Z,2.00
2018-12-22T11:07:31.211Z,1.73
2018-12-22T11:09:57.587Z,1.70
2018-12-22T11:12:23.970Z,2.27
2018-12-22T11:14:50.353Z,1.80
2018-12-22T11:17:16.645Z,1.70
2018-12-22T11:19:43.333Z,1.67
2018-12-22T11:22:09.648Z,1.50
2018-12-22T11:24:35.932Z,1.57
2018-12-22T11:27:02.681Z,1.43
2018-12-22T11:29:29.029Z,1.43
2018-12-22T11:31:55.334Z,1.33
2018-12-22T11:34:21.668Z,1.50
2018-12-22T11:36:47.917Z,1.33
2018-12-22T11:39:14.222Z,1.20
2018-12-22T11:41:40.710Z,1.17
2018-12-22T11:44:07.330Z,0.97
2018-12-22T11:46:34.018Z,1.20
2018-12-22T11:49:00.531Z,1.10
2018-12-22T11:51:26.840Z,1.10
2018-12-22T11:53:53.551Z,1.30
2018-12-22T11:56:19.886Z,1.57
2018-12-22T11:58:46.123Z,1.40
2018-12-22T12:01:12.460Z,1.40
2018-12-22T12:03:38.748Z,1.60
2018-12-22T12:06:05.124Z,1.60
2018-12-22T12:08:31.789Z,1.50
2018-12-22T12:10:58.058Z,1.83
2018-12-22T12:13:24.356Z,1.73
2018-12-22T12:15:50.813Z,1.90
2018-12-22T12:18:24.936Z,2.03
2018-12-22T12:20:51.246Z,2.13
2018-12-22T12:23:17.602Z,2.47
2018-12-22T12:25:44.196Z,2.13
2018-12-22T12:28:10.502Z,2.23
2018-12-22T12:30:36.991Z,2.30
2018-12-22T12:33:03.520Z,2.70
2018-12-22T12:35:29.843Z,2.30
2018-12-22T12:37:56.157Z,1.93
2018-12-22T12:40:22.701Z,2.27
2018-12-22T12:42:49.063Z,1.90
2018-12-22T12:45:15.364Z,2.03
2018-12-22T12:47:43.290Z,1.90
2018-12-22T12:50:13.262Z,1.90
2018-12-22T12:52:39.551Z,1.90
2018-12-22T12:55:10.746Z,2.10
2018-12-22T12:57:37.266Z,3.57
2018-12-22T13:00:08.333Z,2.60
2018-12-22T13:02:34.829Z,2.40
2018-12-22T13:05:01.175Z,2.27
2018-12-22T13:07:27.452Z,2.00
2018-12-22T13:09:53.983Z,4.10
2018-12-22T13:12:20.616Z,3.10
2018-12-22T13:14:47.063Z,3.20
2018-12-22T13:17:13.355Z,2.60
2018-12-22T13:19:39.675Z,2.17
2018-12-22T13:22:05.996Z,2.03
2018-12-22T13:24:32.337Z,2.40
2018-12-22T13:26:58.729Z,2.60
2018-12-22T13:29:25.234Z,2.63
2018-12-22T13:31:51.549Z,16.53
2018-12-22T13:34:17.850Z,4.30
2018-12-22T13:36:44.199Z,3.50
2018-12-22T13:39:10.828Z,2.60
2018-12-22T13:41:37.290Z,1.80
2018-12-22T13:44:03.568Z,2.20
2018-12-22T13:46:29.787Z,1.60
2018-12-22T13:48:56.092Z,1.97
2018-12-22T13:51:22.675Z,1.80
2018-12-22T13:53:49.050Z,1.57
2018-12-22T13:56:15.671Z,2.63
2018-12-22T13:58:41.961Z,1.90
2018-12-22T14:01:08.367Z,1.80
2018-12-22T14:03:34.962Z,2.80
2018-12-22T14:06:01.567Z,2.20
2018-12-22T14:08:28.913Z,2.27
2018-12-22T14:10:55.806Z,3.27
2018-12-22T14:13:22.335Z,3.77
2018-12-22T14:15:49.309Z,1.73
2018-12-22T14:18:27.834Z,2.30
2018-12-22T14:20:54.430Z,2.40
2018-12-22T14:23:24.017Z,1.63
2018-12-22T14:25:50.605Z,1.43
2018-12-22T14:28:16.998Z,2.00
2018-12-22T14:30:43.327Z,3.13
2018-12-22T14:33:09.769Z,2.13
2018-12-22T14:35:36.591Z,2.60
2018-12-22T14:38:02.913Z,2.27
2018-12-22T14:40:29.265Z,2.33
2018-12-22T14:42:57.216Z,2.13
2018-12-22T14:45:24.288Z,3.07
2018-12-22T14:47:55.826Z,3.03
2018-12-22T14:50:29.812Z,2.27
2018-12-22T14:52:56.539Z,1.83
2018-12-22T14:55:25.565Z,2.90
2018-12-22T14:57:56.386Z,2.63
2018-12-22T15:00:22.986Z,1.93
2018-12-22T15:02:50.642Z,1.57
2018-12-22T15:05:18.054Z,2.20
2018-12-22T15:07:46.289Z,1.80
2018-12-22T15:10:14.338Z,2.00
2018-12-22T15:12:43.239Z,2.60
2018-12-22T15:15:11.334Z,2.27
2018-12-22T15:17:42.486Z,2.60
2018-12-22T15:20:18.390Z,2.30
2018-12-22T15:22:46.770Z,1.80
2018-12-22T15:25:13.280Z,1.90
2018-12-22T15:27:41.155Z,1.90
2018-12-22T15:30:10.801Z,1.60
2018-12-22T15:32:44.200Z,1.53
2018-12-22T15:35:08.087Z,1.50
2018-12-22T15:37:34.733Z,1.13
2018-12-22T15:40:01.212Z,1.13
2018-12-22T15:42:27.579Z,1.20
2018-12-22T15:44:53.866Z,1.23
2018-12-22T15:47:20.205Z,1.00
2018-12-22T15:49:46.773Z,1.47
2018-12-22T15:52:13.108Z,1.40
2018-12-22T15:54:39.647Z,1.20
2018-12-22T15:57:06.264Z,1.50
2018-12-22T15:59:32.585Z,1.50
2018-12-22T16:01:58.967Z,1.40
2018-12-22T16:04:25.233Z,1.60
2018-12-22T16:06:51.735Z,1.60
2018-12-22T16:09:18.132Z,1.70
2018-12-22T16:11:44.691Z,2.60
2018-12-22T16:14:10.981Z,1.93
2018-12-22T16:16:37.594Z,1.70
2018-12-22T16:19:04.945Z,1.77
2018-12-22T16:21:31.408Z,2.63
2018-12-22T16:23:57.827Z,7.47
2018-12-22T16:26:24.237Z,9.67
2018-12-22T16:28:50.728Z,8.83
2018-12-22T16:31:18.053Z,5.00
2018-12-22T16:33:44.513Z,7.27
2018-12-22T16:36:10.823Z,6.33
2018-12-22T16:38:37.430Z,6.77
2018-12-22T16:41:03.920Z,4.63
2018-12-22T16:43:30.300Z,4.70
2018-12-22T16:45:59.376Z,4.30
2018-12-22T16:48:25.802Z,3.90
2018-12-22T16:50:52.267Z,4.47
2018-12-22T16:53:18.627Z,5.17
2018-12-22T16:55:45.032Z,4.63
2018-12-22T16:58:15.440Z,3.53
2018-12-22T17:00:49.814Z,3.00
2018-12-22T17:03:16.271Z,3.27
2018-12-22T17:05:42.685Z,2.97
2018-12-22T17:08:09.004Z,3.77
2018-12-22T17:10:35.335Z,3.43
2018-12-22T17:13:01.598Z,3.37
2018-12-22T17:15:28.018Z,4.13
2018-12-22T17:17:54.419Z,2.83
2018-12-22T17:20:20.747Z,2.70
2018-12-22T17:23:15.845Z,2.70
2018-12-22T17:25:44.277Z,2.83
2018-12-22T17:28:10.709Z,2.90
2018-12-22T17:30:37.331Z,3.10
2018-12-22T17:33:04.620Z,3.30
2018-12-22T17:35:31.268Z,2.87
2018-12-22T17:37:57.961Z,2.73
2018-12-22T17:40:24.405Z,2.23
2018-12-22T17:42:50.660Z,2.43
2018-12-22T17:45:16.957Z,2.60
2018-12-22T17:47:43.256Z,2.83
2018-12-22T17:50:09.629Z,2.17
2018-12-22T17:52:36.086Z,2.17
2018-12-22T17:55:02.599Z,2.87
2018-12-22T17:57:28.935Z,2.17
2018-12-22T17:59:55.478Z,2.10
2018-12-22T18:02:21.788Z,2.17
2018-12-22T18:04:48.445Z,2.20
2018-12-22T18:07:14.769Z,2.27
2018-12-22T18:09:41.097Z,2.20
2018-12-22T18:12:07.426Z,2.50
2018-12-22T18:14:33.745Z,2.90
2018-12-22T18:17:00.170Z,3.77
2018-12-22T18:19:26.493Z,3.20
2018-12-22T18:21:52.907Z,3.50
2018-12-22T18:24:19.263Z,3.17
2018-12-22T18:26:46.852Z,2.90
2018-12-22T18:29:13.097Z,3.43
2018-12-22T18:31:39.388Z,3.87
2018-12-22T18:34:05.822Z,3.80
2018-12-22T18:36:32.181Z,3.30
2018-12-22T18:38:58.731Z,3.50
2018-12-22T18:41:25.036Z,3.53
2018-12-22T18:43:51.410Z,3.77
2018-12-22T18:46:17.695Z,3.10
2018-12-22T18:48:44.169Z,3.10
2018-12-22T18:51:10.453Z,2.53
2018-12-22T18:53:36.806Z,2.83
2018-12-22T18:56:03.248Z,3.03
2018-12-22T18:58:29.733Z,2.90
2018-12-22T19:00:56.100Z,3.27
2018-12-22T19:03:22.448Z,3.00
2018-12-22T19:05:48.970Z,2.97
2018-12-22T19:08:15.401Z,2.87
2018-12-22T19:10:41.663Z,2.70
2018-12-22T19:13:08.058Z,3.17
2018-12-22T19:15:34.327Z,2.60
2018-12-22T19:18:00.640Z,2.77
2018-12-22T19:20:30.976Z,2.30
2018-12-22T19:22:58.169Z,3.47
2018-12-22T19:25:25.717Z,2.77
2018-12-22T19:27:51.996Z,3.60
2018-12-22T19:30:18.247Z,3.30
2018-12-22T19:32:44.822Z,2.90
2018-12-22T19:35:11.110Z,2.80
2018-12-22T19:37:37.428Z,2.73
2018-12-22T19:40:03.943Z,2.40
2018-12-22T19:42:30.294Z,2.40
2018-12-22T19:44:56.613Z,2.70
2018-12-22T19:47:22.889Z,2.30
2018-12-22T19:49:49.416Z,2.40
2018-12-22T19:52:15.717Z,2.60
2018-12-22T19:54:42.071Z,2.17
2018-12-22T19:57:08.397Z,2.40
2018-12-22T19:59:34.695Z,2.27
2018-12-22T20:02:01.127Z,2.87
2018-12-22T20:04:27.491Z,2.70
2018-12-22T20:06:53.745Z,3.03
2018-12-22T20:09:20.365Z,3.03
2018-12-22T20:11:46.809Z,2.70
2018-12-22T20:14:13.077Z,2.70
2018-12-22T20:16:39.423Z,2.60
2018-12-22T20:19:06.238Z,2.97
2018-12-22T20:21:32.618Z,3.20
2018-12-22T20:23:58.936Z,3.10
2018-12-22T20:26:25.216Z,3.47
2018-12-22T20:28:51.521Z,3.20
2018-12-22T20:31:17.858Z,2.70
2018-12-22T20:33:44.194Z,2.20
2018-12-22T20:36:11.546Z,2.10
2018-12-22T20:38:37.885Z,2.20
2018-12-22T20:41:04.303Z,2.67
2018-12-22T20:43:30.918Z,2.30
2018-12-22T20:45:57.305Z,2.70
2018-12-22T20:48:23.538Z,2.40
2018-12-22T20:50:49.899Z,2.40
2018-12-22T20:53:16.170Z,2.73
2018-12-22T20:55:42.414Z,2.97
2018-12-22T20:58:08.714Z,3.97
2018-12-22T21:00:34.984Z,4.37
2018-12-22T21:03:01.470Z,4.00
2018-12-22T21:05:29.312Z,4.13
2018-12-22T21:07:55.613Z,3.70
2018-12-22T21:10:21.916Z,3.20
2018-12-22T21:12:48.247Z,3.20
2018-12-22T21:15:14.543Z,2.87
2018-12-22T21:17:41.178Z,3.03
2018-12-22T21:20:07.771Z,3.33
2018-12-22T21:22:34.039Z,3.90
2018-12-22T21:25:00.652Z,5.37
2018-12-22T21:27:27.229Z,6.00
2018-12-22T21:29:53.503Z,5.33
2018-12-22T21:32:19.859Z,7.53
2018-12-22T21:34:46.222Z,6.67
2018-12-22T21:37:12.539Z,5.00
2018-12-22T21:39:38.888Z,4.80
2018-12-22T21:42:05.255Z,4.20
2018-12-22T21:44:31.884Z,3.87
2018-12-22T21:46:58.216Z,3.30
2018-12-22T21:49:24.594Z,3.00
2018-12-22T21:51:51.720Z,2.97
2018-12-22T21:54:18.060Z,2.53
2018-12-22T21:56:44.441Z,3.23
2018-12-22T21:59:11.146Z,4.23
2018-12-22T22:01:37.659Z,4.07
2018-12-22T22:04:04.135Z,3.90
2018-12-22T22:06:30.452Z,3.63
2018-12-22T22:08:56.788Z,3.50
2018-12-22T22:11:23.169Z,3.03
2018-12-22T22:13:49.527Z,3.20
2018-12-22T22:16:15.969Z,3.90
2018-12-22T22:18:42.231Z,4.93
2018-12-22T22:21:08.586Z,4.50
2018-12-22T22:23:34.967Z,6.07
2018-12-22T22:26:01.642Z,5.40
2018-12-22T22:28:28.254Z,5.22
2018-12-22T22:30:54.545Z,4.07
2018-12-22T22:33:21.562Z,3.37
2018-12-22T22:35:48.107Z,4.30
2018-12-22T22:38:14.429Z,5.67
2018-12-22T22:40:40.712Z,4.60
2018-12-22T22:43:07.114Z,5.23
2018-12-22T22:45:33.596Z,4.53
2018-12-22T22:47:59.968Z,4.20
2018-12-22T22:50:26.272Z,5.03
2018-12-22T22:52:52.589Z,6.20
2018-12-22T22:55:18.926Z,5.53
2018-12-22T22:57:45.337Z,5.53
2018-12-22T23:00:14.108Z,5.73
2018-12-22T23:02:40.665Z,5.33
2018-12-22T23:05:06.984Z,5.10
2018-12-22T23:07:33.320Z,3.87
2018-12-22T23:09:59.675Z,3.80
2018-12-22T23:12:26.073Z,2.80
2018-12-22T23:14:52.436Z,2.30
2018-12-22T23:17:18.782Z,2.10
2018-12-22T23:19:45.100Z,1.90
2018-12-22T23:22:11.732Z,2.10
2018-12-22T23:24:40.436Z,2.10
2018-12-22T23:27:06.865Z,1.80
2018-12-22T23:29:33.179Z,1.97
2018-12-22T23:32:00.161Z,2.03
2018-12-22T23:34:26.616Z,1.70
2018-12-22T23:36:52.949Z,1.70
2018-12-22T23:39:19.676Z,1.63
2018-12-22T23:41:45.981Z,1.47
2018-12-22T23:44:12.351Z,1.60
2018-12-22T23:46:38.897Z,2.07
2018-12-22T23:49:05.117Z,1.83
2018-12-22T23:51:31.526Z,2.20
2018-12-22T23:53:58.459Z,1.60
2018-12-22T23:56:24.914Z,1.60
2018-12-22T23:58:51.172Z,1.90
